sensor_id;sensor_type;location;lat;lon;timestamp;P1;durP1;ratioP1;P2;durP2;ratioP2
8978;SDS011;4524;51.364;5.448;2023-05-10T00:00:12;32.10;;;21.73;;
8978;SDS011;4524;51.364;5.448;2023-05-10T00:02:42;32.57;;;22.03;;
8978;SDS011;4524;51.364;5.448;2023-05-10T00:05:10;26.50;;;20.13;;
8978;SDS011;4524;51.364;5.448;2023-05-10T00:07:38;27.57;;;20.50;;
8978;SDS011;4524;51.364;5.448;2023-05-10T00:10:06;38.00;;;22.53;;
8978;SDS011;4524;51.364;5.448;2023-05-10T00:12:36;43.77;;;22.67;;
8978;SDS011;4524;51.364;5.448;2023-05-10T00:15:05;32.20;;;22.10;;
8978;SDS011;4524;51.364;5.448;2023-05-10T00:17:33;25.57;;;18.60;;
8978;SDS011;4524;51.364;5.448;2023-05-10T00:20:01;29.27;;;20.47;;
8978;SDS011;4524;51.364;5.448;2023-05-10T00:22:31;29.20;;;21.23;;
8978;SDS011;4524;51.364;5.448;2023-05-10T00:24:59;25.23;;;18.83;;
8978;SDS011;4524;51.364;5.448;2023-05-10T00:27:27;26.97;;;18.90;;
8978;SDS011;4524;51.364;5.448;2023-05-10T00:29:56;25.67;;;18.07;;
8978;SDS011;4524;51.364;5.448;2023-05-10T00:32:24;24.80;;;17.67;;
8978;SDS011;4524;51.364;5.448;2023-05-10T00:34:52;24.43;;;17.00;;
8978;SDS011;4524;51.364;5.448;2023-05-10T00:37:20;32.43;;;19.13;;
8978;SDS011;4524;51.364;5.448;2023-05-10T00:40:06;21.03;;;16.47;;
8978;SDS011;4524;51.364;5.448;2023-05-10T00:42:34;22.50;;;16.83;;
8978;SDS011;4524;51.364;5.448;2023-05-10T00:45:05;21.23;;;15.87;;
8978;SDS011;4524;51.364;5.448;2023-05-10T00:47:34;22.60;;;17.10;;
8978;SDS011;4524;51.364;5.448;2023-05-10T00:50:02;21.53;;;14.93;;
8978;SDS011;4524;51.364;5.448;2023-05-10T00:52:31;17.83;;;14.97;;
8978;SDS011;4524;51.364;5.448;2023-05-10T00:54:59;22.40;;;15.73;;
8978;SDS011;4524;51.364;5.448;2023-05-10T00:57:30;17.93;;;14.13;;
8978;SDS011;4524;51.364;5.448;2023-05-10T00:59:58;20.77;;;15.63;;
8978;SDS011;4524;51.364;5.448;2023-05-10T01:02:28;19.37;;;14.97;;
8978;SDS011;4524;51.364;5.448;2023-05-10T01:04:56;19.83;;;14.60;;
8978;SDS011;4524;51.364;5.448;2023-05-10T01:07:24;16.83;;;14.13;;
8978;SDS011;4524;51.364;5.448;2023-05-10T01:09:52;18.30;;;15.23;;
8978;SDS011;4524;51.364;5.448;2023-05-10T01:12:20;23.07;;;16.93;;
8978;SDS011;4524;51.364;5.448;2023-05-10T01:14:48;25.20;;;17.27;;
8978;SDS011;4524;51.364;5.448;2023-05-10T01:17:16;25.83;;;17.83;;
8978;SDS011;4524;51.364;5.448;2023-05-10T01:19:46;22.87;;;17.23;;
8978;SDS011;4524;51.364;5.448;2023-05-10T01:22:18;25.90;;;18.37;;
8978;SDS011;4524;51.364;5.448;2023-05-10T01:28:15;22.63;;;17.67;;
8978;SDS011;4524;51.364;5.448;2023-05-10T01:31:16;26.13;;;18.40;;
8978;SDS011;4524;51.364;5.448;2023-05-10T01:33:52;40.20;;;22.03;;
8978;SDS011;4524;51.364;5.448;2023-05-10T01:36:24;25.83;;;17.93;;
8978;SDS011;4524;51.364;5.448;2023-05-10T01:38:59;30.00;;;20.83;;
8978;SDS011;4524;51.364;5.448;2023-05-10T01:41:36;28.13;;;19.60;;
8978;SDS011;4524;51.364;5.448;2023-05-10T01:44:15;30.40;;;20.73;;
8978;SDS011;4524;51.364;5.448;2023-05-10T01:46:48;31.77;;;21.57;;
8978;SDS011;4524;51.364;5.448;2023-05-10T01:49:23;30.10;;;21.70;;
8978;SDS011;4524;51.364;5.448;2023-05-10T01:51:53;33.10;;;22.27;;
8978;SDS011;4524;51.364;5.448;2023-05-10T01:54:26;30.53;;;21.70;;
8978;SDS011;4524;51.364;5.448;2023-05-10T01:56:57;42.97;;;24.53;;
8978;SDS011;4524;51.364;5.448;2023-05-10T01:59:31;40.43;;;24.40;;
8978;SDS011;4524;51.364;5.448;2023-05-10T02:02:05;30.57;;;22.40;;
8978;SDS011;4524;51.364;5.448;2023-05-10T02:04:35;31.13;;;22.63;;
8978;SDS011;4524;51.364;5.448;2023-05-10T02:07:05;33.63;;;23.53;;
8978;SDS011;4524;51.364;5.448;2023-05-10T02:09:35;35.50;;;23.53;;
8978;SDS011;4524;51.364;5.448;2023-05-10T02:12:04;34.63;;;24.23;;
8978;SDS011;4524;51.364;5.448;2023-05-10T02:14:35;43.57;;;27.50;;
8978;SDS011;4524;51.364;5.448;2023-05-10T02:17:04;39.90;;;26.67;;
8978;SDS011;4524;51.364;5.448;2023-05-10T02:19:35;38.93;;;27.43;;
8978;SDS011;4524;51.364;5.448;2023-05-10T02:22:05;54.30;;;30.23;;
8978;SDS011;4524;51.364;5.448;2023-05-10T02:24:35;46.67;;;30.43;;
8978;SDS011;4524;51.364;5.448;2023-05-10T02:27:04;43.80;;;28.87;;
8978;SDS011;4524;51.364;5.448;2023-05-10T02:29:34;43.40;;;28.10;;
8978;SDS011;4524;51.364;5.448;2023-05-10T02:32:03;50.37;;;30.33;;
8978;SDS011;4524;51.364;5.448;2023-05-10T02:34:33;45.63;;;30.00;;
8978;SDS011;4524;51.364;5.448;2023-05-10T02:37:03;44.80;;;28.93;;
8978;SDS011;4524;51.364;5.448;2023-05-10T02:39:32;50.20;;;29.00;;
8978;SDS011;4524;51.364;5.448;2023-05-10T02:42:02;36.70;;;26.10;;
8978;SDS011;4524;51.364;5.448;2023-05-10T02:44:31;36.13;;;26.33;;
8978;SDS011;4524;51.364;5.448;2023-05-10T02:47:00;49.83;;;29.37;;
8978;SDS011;4524;51.364;5.448;2023-05-10T02:49:28;43.37;;;27.90;;
8978;SDS011;4524;51.364;5.448;2023-05-10T02:51:56;35.30;;;24.73;;
8978;SDS011;4524;51.364;5.448;2023-05-10T02:54:31;39.10;;;25.73;;
8978;SDS011;4524;51.364;5.448;2023-05-10T02:57:03;36.67;;;24.33;;
8978;SDS011;4524;51.364;5.448;2023-05-10T02:59:33;35.10;;;24.40;;
8978;SDS011;4524;51.364;5.448;2023-05-10T03:02:01;42.70;;;25.20;;
8978;SDS011;4524;51.364;5.448;2023-05-10T03:04:30;36.10;;;23.50;;
8978;SDS011;4524;51.364;5.448;2023-05-10T03:06:58;36.90;;;24.00;;
8978;SDS011;4524;51.364;5.448;2023-05-10T03:09:26;35.67;;;23.23;;
8978;SDS011;4524;51.364;5.448;2023-05-10T03:11:56;32.17;;;22.87;;
8978;SDS011;4524;51.364;5.448;2023-05-10T03:14:34;31.57;;;22.87;;
8978;SDS011;4524;51.364;5.448;2023-05-10T03:20:03;32.33;;;22.60;;
8978;SDS011;4524;51.364;5.448;2023-05-10T03:22:37;31.97;;;22.03;;
8978;SDS011;4524;51.364;5.448;2023-05-10T03:25:08;32.73;;;21.40;;
8978;SDS011;4524;51.364;5.448;2023-05-10T03:27:41;31.30;;;21.07;;
8978;SDS011;4524;51.364;5.448;2023-05-10T03:30:11;39.47;;;23.23;;
8978;SDS011;4524;51.364;5.448;2023-05-10T03:32:40;34.67;;;22.00;;
8978;SDS011;4524;51.364;5.448;2023-05-10T03:35:09;37.10;;;22.97;;
8978;SDS011;4524;51.364;5.448;2023-05-10T03:37:37;35.87;;;23.07;;
8978;SDS011;4524;51.364;5.448;2023-05-10T03:40:06;46.07;;;25.20;;
8978;SDS011;4524;51.364;5.448;2023-05-10T03:42:37;33.80;;;22.70;;
8978;SDS011;4524;51.364;5.448;2023-05-10T03:45:07;36.67;;;23.00;;
8978;SDS011;4524;51.364;5.448;2023-05-10T03:47:36;35.73;;;22.23;;
8978;SDS011;4524;51.364;5.448;2023-05-10T03:50:04;39.83;;;24.10;;
8978;SDS011;4524;51.364;5.448;2023-05-10T03:52:33;35.93;;;23.00;;
8978;SDS011;4524;51.364;5.448;2023-05-10T03:55:01;33.63;;;22.67;;
8978;SDS011;4524;51.364;5.448;2023-05-10T03:57:29;39.47;;;24.30;;
8978;SDS011;4524;51.364;5.448;2023-05-10T03:59:58;34.23;;;22.80;;
8978;SDS011;4524;51.364;5.448;2023-05-10T04:02:28;46.57;;;25.80;;
8978;SDS011;4524;51.364;5.448;2023-05-10T04:04:56;39.30;;;24.53;;
8978;SDS011;4524;51.364;5.448;2023-05-10T04:07:24;44.43;;;25.63;;
8978;SDS011;4524;51.364;5.448;2023-05-10T04:09:52;46.50;;;26.90;;
8978;SDS011;4524;51.364;5.448;2023-05-10T04:12:21;68.37;;;30.27;;
8978;SDS011;4524;51.364;5.448;2023-05-10T04:14:49;49.50;;;27.83;;
8978;SDS011;4524;51.364;5.448;2023-05-10T04:17:17;53.10;;;28.00;;
8978;SDS011;4524;51.364;5.448;2023-05-10T04:19:46;64.53;;;29.57;;
8978;SDS011;4524;51.364;5.448;2023-05-10T04:22:14;46.13;;;27.27;;
8978;SDS011;4524;51.364;5.448;2023-05-10T04:24:42;58.63;;;28.60;;
8978;SDS011;4524;51.364;5.448;2023-05-10T04:27:10;48.27;;;28.00;;
8978;SDS011;4524;51.364;5.448;2023-05-10T04:29:38;47.10;;;27.73;;
8978;SDS011;4524;51.364;5.448;2023-05-10T04:32:05;44.27;;;26.93;;
8978;SDS011;4524;51.364;5.448;2023-05-10T04:34:34;54.67;;;28.60;;
8978;SDS011;4524;51.364;5.448;2023-05-10T04:37:03;53.87;;;26.63;;
8978;SDS011;4524;51.364;5.448;2023-05-10T04:39:31;52.90;;;29.07;;
8978;SDS011;4524;51.364;5.448;2023-05-10T04:41:59;54.57;;;28.17;;
8978;SDS011;4524;51.364;5.448;2023-05-10T04:44:28;49.57;;;28.27;;
8978;SDS011;4524;51.364;5.448;2023-05-10T04:46:56;47.33;;;28.33;;
8978;SDS011;4524;51.364;5.448;2023-05-10T04:49:24;49.33;;;28.40;;
8978;SDS011;4524;51.364;5.448;2023-05-10T04:51:52;52.77;;;29.13;;
8978;SDS011;4524;51.364;5.448;2023-05-10T04:54:22;46.80;;;28.87;;
8978;SDS011;4524;51.364;5.448;2023-05-10T04:56:49;46.33;;;28.17;;
8978;SDS011;4524;51.364;5.448;2023-05-10T04:59:17;44.17;;;27.20;;
8978;SDS011;4524;51.364;5.448;2023-05-10T05:01:45;50.53;;;28.53;;
8978;SDS011;4524;51.364;5.448;2023-05-10T05:04:13;41.87;;;26.90;;
8978;SDS011;4524;51.364;5.448;2023-05-10T05:06:42;40.80;;;25.70;;
8978;SDS011;4524;51.364;5.448;2023-05-10T05:09:10;47.80;;;28.50;;
8978;SDS011;4524;51.364;5.448;2023-05-10T05:11:39;49.60;;;28.80;;
8978;SDS011;4524;51.364;5.448;2023-05-10T05:14:07;45.67;;;28.70;;
8978;SDS011;4524;51.364;5.448;2023-05-10T05:16:35;44.93;;;28.83;;
8978;SDS011;4524;51.364;5.448;2023-05-10T05:19:03;41.07;;;27.40;;
8978;SDS011;4524;51.364;5.448;2023-05-10T05:21:31;46.13;;;28.47;;
8978;SDS011;4524;51.364;5.448;2023-05-10T05:23:59;41.07;;;27.37;;
8978;SDS011;4524;51.364;5.448;2023-05-10T05:26:27;49.93;;;27.97;;
8978;SDS011;4524;51.364;5.448;2023-05-10T05:28:56;36.00;;;24.73;;
8978;SDS011;4524;51.364;5.448;2023-05-10T05:31:24;37.87;;;25.50;;
8978;SDS011;4524;51.364;5.448;2023-05-10T05:33:52;35.27;;;24.33;;
8978;SDS011;4524;51.364;5.448;2023-05-10T05:36:20;37.43;;;25.10;;
8978;SDS011;4524;51.364;5.448;2023-05-10T05:38:48;31.53;;;22.73;;
8978;SDS011;4524;51.364;5.448;2023-05-10T05:41:16;29.50;;;20.63;;
8978;SDS011;4524;51.364;5.448;2023-05-10T05:43:44;30.47;;;20.73;;
8978;SDS011;4524;51.364;5.448;2023-05-10T05:46:13;33.43;;;21.67;;
8978;SDS011;4524;51.364;5.448;2023-05-10T05:48:41;24.70;;;19.03;;
8978;SDS011;4524;51.364;5.448;2023-05-10T05:51:09;26.80;;;19.10;;
8978;SDS011;4524;51.364;5.448;2023-05-10T05:53:37;26.50;;;19.70;;
8978;SDS011;4524;51.364;5.448;2023-05-10T05:56:05;28.67;;;19.13;;
8978;SDS011;4524;51.364;5.448;2023-05-10T05:58:34;26.13;;;19.80;;
8978;SDS011;4524;51.364;5.448;2023-05-10T06:01:02;25.03;;;18.20;;
8978;SDS011;4524;51.364;5.448;2023-05-10T06:03:31;25.70;;;18.90;;
8978;SDS011;4524;51.364;5.448;2023-05-10T06:05:59;29.03;;;19.53;;
8978;SDS011;4524;51.364;5.448;2023-05-10T06:08:27;27.53;;;19.67;;
8978;SDS011;4524;51.364;5.448;2023-05-10T06:10:55;28.27;;;20.60;;
8978;SDS011;4524;51.364;5.448;2023-05-10T06:13:23;27.00;;;18.90;;
8978;SDS011;4524;51.364;5.448;2023-05-10T06:15:51;27.93;;;20.03;;
8978;SDS011;4524;51.364;5.448;2023-05-10T06:18:18;30.73;;;20.70;;
8978;SDS011;4524;51.364;5.448;2023-05-10T06:20:48;24.40;;;17.70;;
8978;SDS011;4524;51.364;5.448;2023-05-10T06:23:17;26.53;;;20.20;;
8978;SDS011;4524;51.364;5.448;2023-05-10T06:25:45;29.00;;;20.83;;
8978;SDS011;4524;51.364;5.448;2023-05-10T06:28:13;27.73;;;19.30;;
8978;SDS011;4524;51.364;5.448;2023-05-10T06:30:41;28.23;;;20.03;;
8978;SDS011;4524;51.364;5.448;2023-05-10T06:33:09;28.20;;;20.13;;
8978;SDS011;4524;51.364;5.448;2023-05-10T06:35:37;29.30;;;20.37;;
8978;SDS011;4524;51.364;5.448;2023-05-10T06:38:06;24.70;;;19.53;;
8978;SDS011;4524;51.364;5.448;2023-05-10T06:40:34;25.17;;;19.37;;
8978;SDS011;4524;51.364;5.448;2023-05-10T06:43:03;24.13;;;20.10;;
8978;SDS011;4524;51.364;5.448;2023-05-10T06:45:31;28.00;;;20.40;;
8978;SDS011;4524;51.364;5.448;2023-05-10T06:47:59;22.63;;;18.50;;
8978;SDS011;4524;51.364;5.448;2023-05-10T06:50:27;28.67;;;20.17;;
8978;SDS011;4524;51.364;5.448;2023-05-10T06:52:55;24.90;;;19.57;;
8978;SDS011;4524;51.364;5.448;2023-05-10T06:55:25;28.87;;;20.87;;
8978;SDS011;4524;51.364;5.448;2023-05-10T06:57:53;25.67;;;19.60;;
8978;SDS011;4524;51.364;5.448;2023-05-10T07:00:21;25.67;;;19.73;;
8978;SDS011;4524;51.364;5.448;2023-05-10T07:02:49;23.77;;;18.93;;
8978;SDS011;4524;51.364;5.448;2023-05-10T07:05:18;27.47;;;20.13;;
8978;SDS011;4524;51.364;5.448;2023-05-10T07:07:46;21.93;;;18.13;;
8978;SDS011;4524;51.364;5.448;2023-05-10T07:10:14;21.93;;;18.00;;
8978;SDS011;4524;51.364;5.448;2023-05-10T07:12:43;24.77;;;19.10;;
8978;SDS011;4524;51.364;5.448;2023-05-10T07:15:12;22.37;;;17.57;;
8978;SDS011;4524;51.364;5.448;2023-05-10T07:17:40;23.73;;;18.60;;
8978;SDS011;4524;51.364;5.448;2023-05-10T07:20:11;23.17;;;17.37;;
8978;SDS011;4524;51.364;5.448;2023-05-10T07:22:39;21.57;;;16.33;;
8978;SDS011;4524;51.364;5.448;2023-05-10T07:25:07;21.47;;;15.80;;
8978;SDS011;4524;51.364;5.448;2023-05-10T07:27:36;19.07;;;14.37;;
8978;SDS011;4524;51.364;5.448;2023-05-10T07:30:05;17.70;;;13.30;;
8978;SDS011;4524;51.364;5.448;2023-05-10T07:32:34;21.47;;;15.20;;
8978;SDS011;4524;51.364;5.448;2023-05-10T07:35:03;22.50;;;14.27;;
8978;SDS011;4524;51.364;5.448;2023-05-10T07:37:31;17.93;;;13.00;;
8978;SDS011;4524;51.364;5.448;2023-05-10T07:39:59;19.03;;;13.50;;
8978;SDS011;4524;51.364;5.448;2023-05-10T07:42:27;17.03;;;13.33;;
8978;SDS011;4524;51.364;5.448;2023-05-10T07:44:55;20.50;;;15.03;;
8978;SDS011;4524;51.364;5.448;2023-05-10T07:47:25;18.53;;;13.87;;
8978;SDS011;4524;51.364;5.448;2023-05-10T07:49:53;18.73;;;12.87;;
8978;SDS011;4524;51.364;5.448;2023-05-10T07:52:21;13.50;;;11.90;;
8978;SDS011;4524;51.364;5.448;2023-05-10T07:54:49;17.33;;;12.70;;
8978;SDS011;4524;51.364;5.448;2023-05-10T07:57:17;12.57;;;10.97;;
8978;SDS011;4524;51.364;5.448;2023-05-10T07:59:45;14.13;;;10.63;;
8978;SDS011;4524;51.364;5.448;2023-05-10T08:02:13;14.03;;;10.37;;
8978;SDS011;4524;51.364;5.448;2023-05-10T08:04:43;13.43;;;9.80;;
8978;SDS011;4524;51.364;5.448;2023-05-10T08:07:11;12.40;;;9.80;;
8978;SDS011;4524;51.364;5.448;2023-05-10T08:09:39;12.77;;;10.47;;
8978;SDS011;4524;51.364;5.448;2023-05-10T08:12:06;11.30;;;9.90;;
8978;SDS011;4524;51.364;5.448;2023-05-10T08:14:34;16.47;;;9.90;;
8978;SDS011;4524;51.364;5.448;2023-05-10T08:17:03;15.30;;;10.30;;
8978;SDS011;4524;51.364;5.448;2023-05-10T08:19:31;12.73;;;9.67;;
8978;SDS011;4524;51.364;5.448;2023-05-10T08:22:00;10.77;;;8.67;;
8978;SDS011;4524;51.364;5.448;2023-05-10T08:24:28;11.60;;;8.97;;
8978;SDS011;4524;51.364;5.448;2023-05-10T08:26:56;15.17;;;9.20;;
8978;SDS011;4524;51.364;5.448;2023-05-10T08:29:24;12.37;;;9.30;;
8978;SDS011;4524;51.364;5.448;2023-05-10T08:31:55;12.90;;;8.47;;
8978;SDS011;4524;51.364;5.448;2023-05-10T08:34:23;13.27;;;9.70;;
8978;SDS011;4524;51.364;5.448;2023-05-10T08:36:51;12.03;;;7.83;;
8978;SDS011;4524;51.364;5.448;2023-05-10T08:39:21;10.43;;;8.53;;
8978;SDS011;4524;51.364;5.448;2023-05-10T08:41:58;14.63;;;9.07;;
8978;SDS011;4524;51.364;5.448;2023-05-10T08:44:29;10.00;;;8.17;;
8978;SDS011;4524;51.364;5.448;2023-05-10T08:46:58;10.73;;;9.37;;
8978;SDS011;4524;51.364;5.448;2023-05-10T08:49:30;12.27;;;10.03;;
8978;SDS011;4524;51.364;5.448;2023-05-10T08:51:59;11.47;;;9.77;;
8978;SDS011;4524;51.364;5.448;2023-05-10T08:54:32;12.67;;;9.90;;
8978;SDS011;4524;51.364;5.448;2023-05-10T08:57:00;10.77;;;9.67;;
8978;SDS011;4524;51.364;5.448;2023-05-10T08:59:28;11.60;;;10.00;;
8978;SDS011;4524;51.364;5.448;2023-05-10T09:01:57;13.83;;;10.07;;
8978;SDS011;4524;51.364;5.448;2023-05-10T09:04:26;13.03;;;9.23;;
8978;SDS011;4524;51.364;5.448;2023-05-10T09:06:54;11.93;;;9.50;;
8978;SDS011;4524;51.364;5.448;2023-05-10T09:09:22;11.70;;;9.73;;
8978;SDS011;4524;51.364;5.448;2023-05-10T09:11:54;11.60;;;10.40;;
8978;SDS011;4524;51.364;5.448;2023-05-10T09:14:22;12.47;;;10.37;;
8978;SDS011;4524;51.364;5.448;2023-05-10T09:16:51;11.37;;;9.30;;
8978;SDS011;4524;51.364;5.448;2023-05-10T09:19:20;10.27;;;9.03;;
8978;SDS011;4524;51.364;5.448;2023-05-10T09:21:48;11.23;;;9.00;;
8978;SDS011;4524;51.364;5.448;2023-05-10T09:24:16;10.23;;;8.70;;
8978;SDS011;4524;51.364;5.448;2023-05-10T09:26:47;9.43;;;8.07;;
8978;SDS011;4524;51.364;5.448;2023-05-10T09:29:17;10.40;;;8.47;;
8978;SDS011;4524;51.364;5.448;2023-05-10T09:31:46;11.73;;;8.93;;
8978;SDS011;4524;51.364;5.448;2023-05-10T09:34:17;9.57;;;7.80;;
8978;SDS011;4524;51.364;5.448;2023-05-10T09:36:50;8.93;;;8.03;;
8978;SDS011;4524;51.364;5.448;2023-05-10T09:39:21;9.80;;;8.60;;
8978;SDS011;4524;51.364;5.448;2023-05-10T09:41:58;9.03;;;7.70;;
8978;SDS011;4524;51.364;5.448;2023-05-10T09:44:28;9.13;;;7.80;;
8978;SDS011;4524;51.364;5.448;2023-05-10T09:46:56;9.53;;;7.80;;
8978;SDS011;4524;51.364;5.448;2023-05-10T09:49:24;9.67;;;8.20;;
8978;SDS011;4524;51.364;5.448;2023-05-10T09:52:02;10.10;;;7.53;;
8978;SDS011;4524;51.364;5.448;2023-05-10T09:54:31;7.30;;;6.00;;
8978;SDS011;4524;51.364;5.448;2023-05-10T09:56:59;7.83;;;6.90;;
8978;SDS011;4524;51.364;5.448;2023-05-10T09:59:29;7.07;;;6.37;;
8978;SDS011;4524;51.364;5.448;2023-05-10T10:01:57;7.70;;;6.13;;
8978;SDS011;4524;51.364;5.448;2023-05-10T10:04:27;6.87;;;5.73;;
8978;SDS011;4524;51.364;5.448;2023-05-10T10:06:59;7.13;;;6.17;;
8978;SDS011;4524;51.364;5.448;2023-05-10T10:09:28;6.50;;;5.63;;
8978;SDS011;4524;51.364;5.448;2023-05-10T10:11:57;9.00;;;6.47;;
8978;SDS011;4524;51.364;5.448;2023-05-10T10:14:25;6.60;;;5.60;;
8978;SDS011;4524;51.364;5.448;2023-05-10T10:16:55;7.50;;;6.20;;
8978;SDS011;4524;51.364;5.448;2023-05-10T10:19:34;7.40;;;6.53;;
8978;SDS011;4524;51.364;5.448;2023-05-10T10:22:03;9.50;;;6.70;;
8978;SDS011;4524;51.364;5.448;2023-05-10T10:24:32;10.57;;;7.70;;
8978;SDS011;4524;51.364;5.448;2023-05-10T10:27:01;9.73;;;8.73;;
8978;SDS011;4524;51.364;5.448;2023-05-10T10:29:36;10.10;;;8.47;;
8978;SDS011;4524;51.364;5.448;2023-05-10T10:32:11;12.20;;;10.53;;
8978;SDS011;4524;51.364;5.448;2023-05-10T10:34:47;14.43;;;13.13;;
8978;SDS011;4524;51.364;5.448;2023-05-10T10:37:15;15.70;;;13.93;;
8978;SDS011;4524;51.364;5.448;2023-05-10T10:39:43;15.03;;;13.63;;
8978;SDS011;4524;51.364;5.448;2023-05-10T10:42:11;13.53;;;12.23;;
8978;SDS011;4524;51.364;5.448;2023-05-10T10:44:39;15.97;;;14.37;;
8978;SDS011;4524;51.364;5.448;2023-05-10T10:47:21;15.70;;;14.00;;
8978;SDS011;4524;51.364;5.448;2023-05-10T10:49:51;15.03;;;13.00;;
8978;SDS011;4524;51.364;5.448;2023-05-10T10:52:32;14.13;;;12.67;;
8978;SDS011;4524;51.364;5.448;2023-05-10T10:55:02;15.33;;;12.70;;
8978;SDS011;4524;51.364;5.448;2023-05-10T10:57:31;13.97;;;12.57;;
8978;SDS011;4524;51.364;5.448;2023-05-10T11:02:53;13.70;;;12.40;;
8978;SDS011;4524;51.364;5.448;2023-05-10T11:05:24;13.67;;;12.27;;
8978;SDS011;4524;51.364;5.448;2023-05-10T11:07:53;13.97;;;12.53;;
8978;SDS011;4524;51.364;5.448;2023-05-10T11:10:22;13.57;;;11.83;;
8978;SDS011;4524;51.364;5.448;2023-05-10T11:12:51;13.90;;;12.40;;
8978;SDS011;4524;51.364;5.448;2023-05-10T11:15:20;14.63;;;13.10;;
8978;SDS011;4524;51.364;5.448;2023-05-10T11:17:57;13.47;;;12.17;;
8978;SDS011;4524;51.364;5.448;2023-05-10T11:20:27;15.57;;;13.03;;
8978;SDS011;4524;51.364;5.448;2023-05-10T11:23:10;14.30;;;12.90;;
8978;SDS011;4524;51.364;5.448;2023-05-10T11:25:42;13.80;;;12.40;;
8978;SDS011;4524;51.364;5.448;2023-05-10T11:28:11;16.43;;;14.77;;
8978;SDS011;4524;51.364;5.448;2023-05-10T11:30:39;15.33;;;13.77;;
8978;SDS011;4524;51.364;5.448;2023-05-10T11:33:14;15.53;;;13.93;;
8978;SDS011;4524;51.364;5.448;2023-05-10T11:35:43;15.80;;;14.03;;
8978;SDS011;4524;51.364;5.448;2023-05-10T11:38:11;15.17;;;13.63;;
8978;SDS011;4524;51.364;5.448;2023-05-10T11:40:40;14.87;;;13.37;;
8978;SDS011;4524;51.364;5.448;2023-05-10T11:43:09;15.33;;;13.73;;
8978;SDS011;4524;51.364;5.448;2023-05-10T11:45:41;16.33;;;13.97;;
8978;SDS011;4524;51.364;5.448;2023-05-10T11:48:10;16.47;;;14.20;;
8978;SDS011;4524;51.364;5.448;2023-05-10T11:50:38;17.90;;;14.77;;
8978;SDS011;4524;51.364;5.448;2023-05-10T11:53:06;17.33;;;14.57;;
8978;SDS011;4524;51.364;5.448;2023-05-10T11:55:34;15.87;;;13.60;;
8978;SDS011;4524;51.364;5.448;2023-05-10T11:58:02;15.60;;;13.30;;
8978;SDS011;4524;51.364;5.448;2023-05-10T12:00:30;17.27;;;12.50;;
8978;SDS011;4524;51.364;5.448;2023-05-10T12:03:00;14.87;;;11.87;;
8978;SDS011;4524;51.364;5.448;2023-05-10T12:05:32;14.90;;;12.57;;
8978;SDS011;4524;51.364;5.448;2023-05-10T12:08:13;12.93;;;11.53;;
8978;SDS011;4524;51.364;5.448;2023-05-10T12:10:41;17.10;;;11.77;;
8978;SDS011;4524;51.364;5.448;2023-05-10T12:13:12;13.43;;;11.33;;
8978;SDS011;4524;51.364;5.448;2023-05-10T12:15:42;16.43;;;12.13;;
8978;SDS011;4524;51.364;5.448;2023-05-10T12:18:10;14.20;;;11.63;;
8978;SDS011;4524;51.364;5.448;2023-05-10T12:20:41;15.03;;;12.17;;
8978;SDS011;4524;51.364;5.448;2023-05-10T12:23:09;13.30;;;11.60;;
8978;SDS011;4524;51.364;5.448;2023-05-10T12:25:37;14.17;;;12.10;;
8978;SDS011;4524;51.364;5.448;2023-05-10T12:28:07;13.40;;;10.97;;
8978;SDS011;4524;51.364;5.448;2023-05-10T12:30:36;15.73;;;11.70;;
8978;SDS011;4524;51.364;5.448;2023-05-10T12:33:07;12.67;;;10.50;;
8978;SDS011;4524;51.364;5.448;2023-05-10T12:35:47;13.20;;;10.77;;
8978;SDS011;4524;51.364;5.448;2023-05-10T12:38:26;11.57;;;10.37;;
8978;SDS011;4524;51.364;5.448;2023-05-10T12:40:56;14.67;;;11.00;;
8978;SDS011;4524;51.364;5.448;2023-05-10T12:43:24;11.00;;;9.77;;
8978;SDS011;4524;51.364;5.448;2023-05-10T12:45:52;11.10;;;9.37;;
8978;SDS011;4524;51.364;5.448;2023-05-10T12:48:20;13.67;;;10.07;;
8978;SDS011;4524;51.364;5.448;2023-05-10T12:50:50;13.67;;;9.30;;
8978;SDS011;4524;51.364;5.448;2023-05-10T12:53:18;10.73;;;8.63;;
8978;SDS011;4524;51.364;5.448;2023-05-10T12:55:46;10.47;;;9.27;;
8978;SDS011;4524;51.364;5.448;2023-05-10T12:58:13;10.33;;;8.40;;
8978;SDS011;4524;51.364;5.448;2023-05-10T13:00:57;16.10;;;8.33;;
8978;SDS011;4524;51.364;5.448;2023-05-10T13:03:26;8.63;;;7.73;;
8978;SDS011;4524;51.364;5.448;2023-05-10T13:05:55;8.77;;;7.87;;
8978;SDS011;4524;51.364;5.448;2023-05-10T13:08:23;12.73;;;8.30;;
8978;SDS011;4524;51.364;5.448;2023-05-10T13:10:51;8.43;;;7.40;;
8978;SDS011;4524;51.364;5.448;2023-05-10T13:13:19;8.33;;;6.77;;
8978;SDS011;4524;51.364;5.448;2023-05-10T13:15:47;8.93;;;6.73;;
8978;SDS011;4524;51.364;5.448;2023-05-10T13:18:15;10.47;;;7.60;;
8978;SDS011;4524;51.364;5.448;2023-05-10T13:20:43;8.80;;;7.67;;
8978;SDS011;4524;51.364;5.448;2023-05-10T13:23:13;9.37;;;8.43;;
8978;SDS011;4524;51.364;5.448;2023-05-10T13:25:40;10.17;;;9.17;;
8978;SDS011;4524;51.364;5.448;2023-05-10T13:28:08;11.13;;;9.97;;
8978;SDS011;4524;51.364;5.448;2023-05-10T13:30:36;10.20;;;8.70;;
8978;SDS011;4524;51.364;5.448;2023-05-10T13:33:04;10.83;;;9.50;;
8978;SDS011;4524;51.364;5.448;2023-05-10T13:35:32;10.03;;;8.73;;
8978;SDS011;4524;51.364;5.448;2023-05-10T13:38:00;11.20;;;9.30;;
8978;SDS011;4524;51.364;5.448;2023-05-10T13:40:29;10.73;;;8.80;;
8978;SDS011;4524;51.364;5.448;2023-05-10T13:42:57;9.23;;;8.13;;
8978;SDS011;4524;51.364;5.448;2023-05-10T13:45:25;9.50;;;8.43;;
8978;SDS011;4524;51.364;5.448;2023-05-10T13:47:53;10.33;;;9.33;;
8978;SDS011;4524;51.364;5.448;2023-05-10T13:50:21;12.00;;;10.40;;
8978;SDS011;4524;51.364;5.448;2023-05-10T13:52:49;11.13;;;9.37;;
8978;SDS011;4524;51.364;5.448;2023-05-10T13:55:17;7.40;;;6.60;;
8978;SDS011;4524;51.364;5.448;2023-05-10T13:57:47;8.27;;;7.00;;
8978;SDS011;4524;51.364;5.448;2023-05-10T14:00:15;5.27;;;4.77;;
8978;SDS011;4524;51.364;5.448;2023-05-10T14:02:43;6.53;;;5.30;;
8978;SDS011;4524;51.364;5.448;2023-05-10T14:05:11;5.53;;;5.03;;
8978;SDS011;4524;51.364;5.448;2023-05-10T14:07:39;6.40;;;5.13;;
8978;SDS011;4524;51.364;5.448;2023-05-10T14:10:07;7.27;;;5.33;;
8978;SDS011;4524;51.364;5.448;2023-05-10T14:12:36;5.20;;;4.70;;
8978;SDS011;4524;51.364;5.448;2023-05-10T14:15:05;6.03;;;5.27;;
8978;SDS011;4524;51.364;5.448;2023-05-10T14:17:36;5.90;;;5.30;;
8978;SDS011;4524;51.364;5.448;2023-05-10T14:20:05;6.07;;;4.77;;
8978;SDS011;4524;51.364;5.448;2023-05-10T14:22:33;6.43;;;4.83;;
8978;SDS011;4524;51.364;5.448;2023-05-10T14:25:02;5.40;;;4.57;;
8978;SDS011;4524;51.364;5.448;2023-05-10T14:27:31;5.00;;;4.50;;
8978;SDS011;4524;51.364;5.448;2023-05-10T14:29:59;5.90;;;4.43;;
8978;SDS011;4524;51.364;5.448;2023-05-10T14:32:28;5.00;;;4.50;;
8978;SDS011;4524;51.364;5.448;2023-05-10T14:34:58;5.27;;;4.77;;
8978;SDS011;4524;51.364;5.448;2023-05-10T14:37:26;4.77;;;4.07;;
8978;SDS011;4524;51.364;5.448;2023-05-10T14:39:54;5.43;;;4.87;;
8978;SDS011;4524;51.364;5.448;2023-05-10T14:42:22;5.17;;;4.20;;
8978;SDS011;4524;51.364;5.448;2023-05-10T14:44:49;5.37;;;4.33;;
8978;SDS011;4524;51.364;5.448;2023-05-10T14:47:17;4.20;;;3.80;;
8978;SDS011;4524;51.364;5.448;2023-05-10T14:49:46;4.73;;;4.33;;
8978;SDS011;4524;51.364;5.448;2023-05-10T14:52:14;3.73;;;3.23;;
8978;SDS011;4524;51.364;5.448;2023-05-10T14:54:43;4.23;;;3.77;;
8978;SDS011;4524;51.364;5.448;2023-05-10T14:57:11;4.47;;;3.60;;
8978;SDS011;4524;51.364;5.448;2023-05-10T14:59:39;4.13;;;3.27;;
8978;SDS011;4524;51.364;5.448;2023-05-10T15:02:07;3.67;;;3.30;;
8978;SDS011;4524;51.364;5.448;2023-05-10T15:04:37;3.33;;;2.93;;
8978;SDS011;4524;51.364;5.448;2023-05-10T15:07:06;4.37;;;2.87;;
8978;SDS011;4524;51.364;5.448;2023-05-10T15:09:34;4.83;;;3.97;;
8978;SDS011;4524;51.364;5.448;2023-05-10T15:12:02;5.70;;;4.17;;
8978;SDS011;4524;51.364;5.448;2023-05-10T15:14:30;5.40;;;4.70;;
8978;SDS011;4524;51.364;5.448;2023-05-10T15:16:59;7.60;;;4.90;;